Terminal Aerodrome Forecast
Issued by NWS

Home | Current Version | Previous Version | Text Only | Print | Product List | Glossary On
Versions: 1 2 3 4 5 6 7 8 9 10 11 12 13
000
FTUS45 KSLC 051120
TAFOGD
TAF
KOGD 051120Z 0512/0612 17009KT P6SM BKN200
     FM051900 18013G20KT P6SM SCT140 BKN200
     FM060200 17010KT P6SM BKN140 OVC200=

USA.gov is the U.S. government's official web portal to all federal, state and local government web resources and services.